Flight Track Log - Related Links

Times and Time Zones

All times are in EDT time to prevent confusion due to time zone crossing. See the AAL1583 flight status page for this flight to view local times or setup timezone preferences in your user account.

Time Position Orientation Groundspeed Altitude Reporting Facility
EDT Latitude Longitude Course Direction KTS MPH feet Rate Location/Type
Thu 05:34:38 PM 32.8833 -97.0500 320° Northwest 196 226 1,300  Level Dallas / Fort Worth TRACON
Thu 05:36:02 PM 32.8000 -97.0667 190° South 247 284 3,700 1,875 Climbing Dallas / Fort Worth TRACON
Thu 05:37:00 PM 32.8295 -96.8041 10° North  Level FlightAware Approximate
Thu 05:37:02 PM 32.7667 -97.1333 239° Southwest 278 320 5,800  Level Dallas / Fort Worth TRACON
Thu 05:38:00 PM 32.9406 -96.8000 North  Level FlightAware Approximate
Thu 05:38:02 PM 32.7667 -97.2333 270° West 287 330 7,200  Level Dallas / Fort Worth TRACON
Thu 05:39:00 PM 33.0359 -96.8525 320° Northwest  Level FlightAware Approximate
Thu 05:39:02 PM 32.8500 -97.2667 341° North 287 330 9,700  Level Dallas / Fort Worth TRACON
Thu 05:40:00 PM 33.1213 -96.9379 320° Northwest  Level FlightAware Approximate
Thu 05:40:31 PM 32.9711 -97.2722 358° North 318 366 12,500  Level Fort Worth Center
Thu 05:41:31 PM 33.0692 -97.2672 North 344 396 14,800 2,300 Climbing Fort Worth Center
Thu 05:42:31 PM 33.1756 -97.2619 North 370 426 17,100 2,200 Climbing Fort Worth Center
Thu 05:43:31 PM 33.2842 -97.2569 North 375 432 19,200 2,150 Climbing Fort Worth Center
Thu 05:44:31 PM 33.3969 -97.2517 North 394 453 21,400 1,850 Climbing Fort Worth Center
Thu 05:45:31 PM 33.5117 -97.2442 North 404 465 22,900 1,550 Climbing Fort Worth Center
Thu 05:46:31 PM 33.6347 -97.2314 North 427 491 24,500 1,650 Climbing Fort Worth Center
Thu 05:47:31 PM 33.7558 -97.2161 North 427 491 26,200 1,650 Climbing Fort Worth Center
Thu 05:48:31 PM 33.8769 -97.2033 North 427 491 27,800 1,550 Climbing Fort Worth Center
Thu 05:49:31 PM 33.9978 -97.2256 351° North 427 491 29,300 1,150 Climbing Fort Worth Center
Thu 05:50:31 PM 34.0856 -97.2831 332° Northwest 433 498 30,100 1,100 Climbing Fort Worth Center
Thu 05:51:31 PM 34.1775 -97.4061 312° West 430 495 31,500 1,300 Climbing Fort Worth Center
Thu 05:52:31 PM 34.2650 -97.5217 313° West 435 501 32,700 950 Climbing Fort Worth Center
Thu 05:53:31 PM 34.3506 -97.6350 312° West 448 516 33,400 650 Climbing Fort Worth Center
Thu 05:54:31 PM 34.4442 -97.7558 313° West 453 521 34,000 300 Climbing Fort Worth Center
Thu 05:55:31 PM 34.5292 -97.8697 312° West 453 521 34,000  Level Fort Worth Center
Thu 05:56:31 PM 34.6164 -97.9814 314° West 453 521 34,000  Level Fort Worth Center
Thu 05:57:31 PM 34.7014 -98.0956 312° West 453 521 34,000  Level Fort Worth Center
Thu 05:58:31 PM 34.7842 -98.2047 313° West 448 516 34,000  Level Fort Worth Center
Thu 05:59:31 PM 34.8711 -98.3169 313° West 448 516 34,000  Level Fort Worth Center
Thu 06:00:31 PM 34.9558 -98.4319 312° West 448 516 34,000  Level Fort Worth Center
Thu 06:01:31 PM 35.0300 -98.5242 314° West 442 509 34,000  Level Fort Worth Center
Thu 06:02:31 PM 35.1144 -98.6394 312° West 442 509 34,000  Level Fort Worth Center
Thu 06:03:31 PM 35.1967 -98.7500 312° West 447 514 34,000  Level Fort Worth Center
Thu 06:04:31 PM 35.2789 -98.8606 312° West 447 514 34,000  Level Fort Worth Center
Thu 06:05:31 PM 35.3608 -98.9764 311° West 441 507 34,000  Level Fort Worth Center
Thu 06:06:31 PM 35.4431 -99.0875 312° West 441 507 34,000  Level Fort Worth Center
Thu 06:07:31 PM 35.5331 -99.2119 312° West 441 507 34,000  Level Fort Worth Center
Thu 06:09:32 PM 35.6925 -99.4294 312° West 441 507 34,000  Level Kansas City Center
Thu 06:10:34 PM 35.7817 -99.5361 316° Northwest 440 506 34,000  Level Kansas City Center
Thu 06:11:36 PM 35.8736 -99.6372 318° Northwest 438 504 34,000  Level Kansas City Center
Thu 06:12:38 PM 35.9644 -99.7397 318° Northwest 438 504 34,000  Level Kansas City Center
Thu 06:13:40 PM 36.0269 -99.8719 300° West 442 509 34,000  Level Kansas City Center
Thu 06:14:42 PM 36.1067 -100.0242 303° West 439 505 34,000  Level Kansas City Center
Thu 06:15:45 PM 36.1753 -100.1503 304° West 438 504 34,000  Level Kansas City Center
Thu 06:16:47 PM 36.2417 -100.2778 303° West 439 505 34,000  Level Kansas City Center
Thu 06:17:49 PM 36.3106 -100.4044 304° West 441 507 34,000  Level Kansas City Center
Thu 06:18:51 PM 36.3783 -100.5336 303° West 445 512 34,000  Level Kansas City Center
Thu 06:19:53 PM 36.4539 -100.6794 303° West 445 512 34,000  Level Kansas City Center
Thu 06:20:55 PM 36.5197 -100.8036 303° West 446 513 34,000  Level Kansas City Center
Thu 06:21:57 PM 36.5950 -100.9486 303° West 448 516 34,000  Level Kansas City Center
Thu 06:22:59 PM 36.6594 -101.0722 303° West 445 512 34,000  Level Kansas City Center
Thu 06:24:01 PM 36.7347 -101.2169 303° West 444 511 34,000  Level Kansas City Center
Thu 06:25:03 PM 36.7942 -101.3461 300° West 445 512 34,000  Level Kansas City Center
Thu 06:26:05 PM 36.8475 -101.4778 297° West 445 512 34,000  Level Kansas City Center
Thu 06:27:07 PM 36.9097 -101.6331 297° West 444 511 34,000  Level Kansas City Center
Thu 06:28:09 PM 36.9647 -101.7650 298° West 445 512 34,000  Level Kansas City Center
Thu 06:29:11 PM 37.0303 -101.9186 298° West 446 513 34,000  Level Kansas City Center
Thu 06:30:13 PM 37.0822 -102.0506 296° West 443 510 34,000  Level Kansas City Center
Thu 06:31:15 PM 37.1458 -102.2039 298° West 443 510 34,000  Level Kansas City Center
Thu 06:32:17 PM 37.2042 -102.3319 300° West 443 510 34,000  Level Kansas City Center
Thu 06:33:19 PM 37.2806 -102.4742 304° West 440 506 34,000  Level Kansas City Center
Thu 06:34:22 PM 37.3681 -102.5836 315° West 451 519 34,000  Level Albuquerque Center
Thu 06:35:24 PM 37.4669 -102.7103 315° West 455 524 34,000  Level Albuquerque Center
Thu 06:36:31 PM 37.5875 -102.7953 331° Northwest 451 519 34,000  Level Denver Center
Thu 06:37:33 PM 37.6875 -102.8719 329° Northwest 444 511 34,000  Level Denver Center
Thu 06:38:35 PM 37.8028 -102.9622 328° Northwest 439 505 34,000  Level Denver Center
Thu 06:39:37 PM 37.9044 -103.0408 329° Northwest 444 511 34,000  Level Denver Center
Thu 06:40:39 PM 38.0211 -103.1314 329° Northwest 443 510 34,000  Level Denver Center
Thu 06:41:41 PM 38.1217 -103.2114 328° Northwest 445 512 34,000  Level Denver Center
Thu 06:42:43 PM 38.2233 -103.2900 329° Northwest 448 516 34,000 -146 Level Denver Center
Thu 06:43:44 PM 38.3436 -103.3869 328° Northwest 451 519 33,700 -585 Descending Denver Center
Thu 06:44:46 PM 38.4433 -103.4647 329° Northwest 448 516 32,800 -1,016 Descending Denver Center
Thu 06:45:48 PM 38.5603 -103.5578 328° Northwest 444 511 31,600 -1,452 Descending Denver Center
Thu 06:46:50 PM 38.6611 -103.6383 328° Northwest 445 512 29,800 -2,177 Descending Denver Center
Thu 06:47:52 PM 38.7767 -103.7308 328° Northwest 438 504 27,100 -2,419 Descending Denver Center
Thu 06:48:54 PM 38.8739 -103.8103 328° Northwest 422 486 24,800 -2,244 Descending Denver Center
Thu 06:49:55 PM 38.9689 -103.8850 329° Northwest 405 466 22,500 -2,098 Descending Denver Center
Thu 06:50:57 PM 39.0603 -103.9594 328° Northwest 390 449 20,500 -1,935 Descending Denver Center
Thu 06:51:59 PM 39.1464 -104.0303 327° Northwest 373 429 18,500 -1,790 Descending Denver Center
Thu 06:53:01 PM 39.2378 -104.1044 328° Northwest 355 409 16,800 -1,452 Descending Denver Center
Thu 06:54:03 PM 39.2986 -104.1947 311° West 297 342 15,500 -1,452 Descending Denver Center
Thu 06:55:05 PM 39.3272 -104.2964 290° West 302 348 13,800 -1,902 Descending Denver Center
Thu 06:56:06 PM 39.3667 -104.3981 297° West 296 341 11,600 -1,805 Descending Denver Center
Thu 06:57:08 PM 39.4158 -104.4814 307° West 294 338 10,100 -774 Descending Denver Center
Thu 06:58:10 PM 39.4744 -104.5281 328° Northwest 253 291 10,000 -48 Descending Denver Center
Thu 06:59:12 PM 39.5392 -104.5736 332° Northwest 247 284 10,000 -341 Level Denver Center
Thu 07:00:13 PM 39.6022 -104.6056 339° North 248 285 9,300 -689 Descending Denver Center

Login

Don't have an account? Register now (free) for customized features, flight alerts, and more!